Time;durP1;ratioP1;P1;durP2;ratioP2;P2;SDS_P1;SDS_P2;PMS_P1;PMS_P2;Temp;Humidity;BMP_temperature;BMP_pressure;BME280_temperature;BME280_humidity;BME280_pressure;Samples;Min_cycle;Max_cycle;Signal;HPM_P1;HPM_P2
2022/05/08 00:01:13;;;;;;;0.00;0.00;;;;;;;;;;5012397;28;99585;-74
2022/05/08 00:03:40;;;;;;;0.00;0.00;;;;;;;;;;5012339;28;99326;-74
2022/05/08 00:06:11;;;;;;;0.00;0.00;;;;;;;;;;5011953;28;99843;-74
2022/05/08 00:08:40;;;;;;;0.00;0.00;;;;;;;;;;5015343;28;98315;-74
2022/05/08 00:11:10;;;;;;;0.05;0.03;;;;;;;;;;4993992;28;100529;-74
2022/05/08 00:13:36;;;;;;;0.00;0.00;;;;;;;;;;5012627;28;99206;-73
2022/05/08 00:16:03;;;;;;;0.00;0.00;;;;;;;;;;5012347;28;99364;-74
2022/05/08 00:18:30;;;;;;;0.00;0.00;;;;;;;;;;5011637;28;99110;-75
2022/05/08 00:20:56;;;;;;;0.00;0.00;;;;;;;;;;5014068;28;98964;-75
2022/05/08 00:23:22;;;;;;;0.00;0.00;;;;;;;;;;5015008;28;100523;-75
2022/05/08 00:25:49;;;;;;;0.00;0.00;;;;;;;;;;5015052;28;99509;-75
2022/05/08 00:28:15;;;;;;;0.00;0.00;;;;;;;;;;5015294;28;98894;-74
2022/05/08 00:30:42;;;;;;;0.00;0.00;;;;;;;;;;5000860;28;99720;-74
2022/05/08 00:33:08;;;;;;;0.00;0.00;;;;;;;;;;5015376;28;98518;-74
2022/05/08 00:35:34;;;;;;;0.00;0.00;;;;;;;;;;5015125;28;99975;-75
2022/05/08 00:38:01;;;;;;;0.00;0.00;;;;;;;;;;5015273;28;98094;-75
2022/05/08 00:40:27;;;;;;;0.00;0.00;;;;;;;;;;5015175;28;98495;-74
2022/05/08 00:42:53;;;;;;;0.20;0.20;;;;;;;;;;5015372;28;99579;-74
2022/05/08 00:45:20;;;;;;;0.00;0.00;;;;;;;;;;5014160;28;100448;-74
2022/05/08 00:47:46;;;;;;;0.00;0.00;;;;;;;;;;5014987;28;98335;-74
2022/05/08 00:50:13;;;;;;;0.00;0.00;;;;;;;;;;5015162;28;99549;-74
2022/05/08 00:52:40;;;;;;;0.00;0.00;;;;;;;;;;5018062;28;99162;-74
2022/05/08 00:55:06;;;;;;;0.00;0.00;;;;;;;;;;5015083;28;99402;-74
2022/05/08 00:57:35;;;;;;;0.00;0.00;;;;;;;;;;5014810;28;100095;-74
2022/05/08 01:00:05;;;;;;;0.00;0.00;;;;;;;;;;5014806;28;98378;-74
2022/05/08 01:02:36;;;;;;;0.00;0.00;;;;;;;;;;4998296;28;99311;-74
2022/05/08 01:05:02;;;;;;;0.00;0.00;;;;;;;;;;5014423;28;99690;-74
2022/05/08 01:07:29;;;;;;;0.00;0.00;;;;;;;;;;5015050;28;98460;-74
2022/05/08 01:09:56;;;;;;;0.00;0.00;;;;;;;;;;5014013;28;100397;-74
2022/05/08 01:12:24;;;;;;;0.00;0.00;;;;;;;;;;5000185;28;100060;-74
2022/05/08 01:15:08;;;;;;;0.00;0.00;;;;;;;;;;5014830;28;99654;-74
2022/05/08 01:17:35;;;;;;;0.00;0.00;;;;;;;;;;5013611;28;99693;-73
2022/05/08 01:20:01;;;;;;;0.00;0.00;;;;;;;;;;5013582;28;98966;-74
2022/05/08 01:22:28;;;;;;;0.00;0.00;;;;;;;;;;5011651;28;99188;-73
2022/05/08 01:24:55;;;;;;;0.00;0.00;;;;;;;;;;5013809;28;100121;-73
2022/05/08 01:27:21;;;;;;;0.00;0.00;;;;;;;;;;5009415;28;98361;-73
2022/05/08 01:29:48;;;;;;;0.00;0.00;;;;;;;;;;5014207;28;98546;-74
2022/05/08 01:32:14;;;;;;;0.00;0.00;;;;;;;;;;5013621;28;99710;-74
2022/05/08 01:34:40;;;;;;;0.00;0.00;;;;;;;;;;5017424;28;99071;-73
2022/05/08 01:37:07;;;;;;;0.00;0.00;;;;;;;;;;5014279;28;99687;-73
2022/05/08 01:39:33;;;;;;;0.00;0.00;;;;;;;;;;5014602;28;98311;-73
2022/05/08 01:42:02;;;;;;;0.00;0.00;;;;;;;;;;5014597;28;99631;-74
2022/05/08 01:44:29;;;;;;;0.00;0.00;;;;;;;;;;5013939;28;99692;-75
2022/05/08 01:48:21;;;;;;;0.00;0.00;;;;;;;;;;5014382;28;98751;-73
2022/05/08 01:49:41;;;;;;;0.00;0.00;;;;;;;;;;5013956;28;99120;-74
2022/05/08 01:52:08;;;;;;;0.00;0.00;;;;;;;;;;5014570;28;98946;-73
2022/05/08 01:54:35;;;;;;;0.00;0.00;;;;;;;;;;5014455;28;98441;-74
2022/05/08 01:57:01;;;;;;;0.00;0.00;;;;;;;;;;5016765;28;99518;-73
2022/05/08 01:59:27;;;;;;;0.00;0.00;;;;;;;;;;5013748;28;99051;-73
2022/05/08 02:01:54;;;;;;;0.10;0.10;;;;;;;;;;5012552;28;103023;-74
2022/05/08 02:04:21;;;;;;;0.00;0.00;;;;;;;;;;5011164;28;99056;-74
2022/05/08 02:06:49;;;;;;;0.00;0.00;;;;;;;;;;5013833;28;98342;-73
2022/05/08 02:09:15;;;;;;;0.00;0.00;;;;;;;;;;5014446;28;99418;-74
2022/05/08 02:11:41;;;;;;;0.00;0.00;;;;;;;;;;5013467;28;99955;-74
2022/05/08 02:14:08;;;;;;;0.00;0.00;;;;;;;;;;5013700;28;98471;-74
2022/05/08 02:16:34;;;;;;;0.00;0.00;;;;;;;;;;5014155;28;100250;-74
2022/05/08 02:19:00;;;;;;;0.00;0.00;;;;;;;;;;5015477;28;102461;-74
2022/05/08 02:21:27;;;;;;;0.00;0.00;;;;;;;;;;4995668;28;101436;-74
2022/05/08 02:23:53;;;;;;;0.00;0.00;;;;;;;;;;5012624;28;100311;-74
2022/05/08 02:26:19;;;;;;;0.00;0.00;;;;;;;;;;5013718;28;98404;-74
2022/05/08 02:28:46;;;;;;;0.00;0.00;;;;;;;;;;5013678;28;99412;-73
2022/05/08 02:31:12;;;;;;;0.00;0.00;;;;;;;;;;5013392;28;99751;-74
2022/05/08 02:33:40;;;;;;;0.00;0.00;;;;;;;;;;5013706;28;98258;-74
2022/05/08 02:36:09;;;;;;;0.00;0.00;;;;;;;;;;5013189;28;99168;-74
2022/05/08 02:38:38;;;;;;;0.00;0.00;;;;;;;;;;5013110;28;99729;-73
2022/05/08 02:41:04;;;;;;;0.00;0.00;;;;;;;;;;5017256;28;98696;-73
2022/05/08 02:43:31;;;;;;;0.00;0.00;;;;;;;;;;5012116;28;99265;-74
2022/05/08 02:45:59;;;;;;;0.00;0.00;;;;;;;;;;5013349;28;98473;-73
2022/05/08 02:48:26;;;;;;;0.00;0.00;;;;;;;;;;5012618;28;99244;-74
2022/05/08 02:50:57;;;;;;;0.00;0.00;;;;;;;;;;5012427;28;99497;-73
2022/05/08 02:53:24;;;;;;;0.00;0.00;;;;;;;;;;5013187;28;98494;-73
2022/05/08 02:58:35;;;;;;;0.00;0.00;;;;;;;;;;5012904;28;99688;-73
2022/05/08 03:01:04;;;;;;;0.00;0.00;;;;;;;;;;4995467;28;98640;-74
2022/05/08 03:03:31;;;;;;;0.00;0.00;;;;;;;;;;4998364;28;99474;-73
2022/05/08 03:05:58;;;;;;;0.00;0.00;;;;;;;;;;5013507;28;97621;-73
2022/05/08 03:08:24;;;;;;;0.00;0.00;;;;;;;;;;5013045;28;98457;-73
2022/05/08 03:13:38;;;;;;;0.00;0.00;;;;;;;;;;5012508;28;99157;-74
2022/05/08 03:16:05;;;;;;;0.00;0.00;;;;;;;;;;5012880;28;99921;-73
2022/05/08 03:18:32;;;;;;;0.00;0.00;;;;;;;;;;5012707;28;99436;-73
2022/05/08 03:20:59;;;;;;;0.00;0.00;;;;;;;;;;5012738;28;98460;-73
2022/05/08 03:23:25;;;;;;;0.00;0.00;;;;;;;;;;5015709;28;99964;-72
2022/05/08 03:25:53;;;;;;;0.00;0.00;;;;;;;;;;5012821;28;98464;-74
2022/05/08 03:28:19;;;;;;;0.00;0.00;;;;;;;;;;5012583;28;98811;-74
2022/05/08 03:30:45;;;;;;;0.00;0.00;;;;;;;;;;5013057;28;98954;-74
2022/05/08 03:33:12;;;;;;;0.00;0.00;;;;;;;;;;5012764;28;98386;-74
2022/05/08 03:35:39;;;;;;;0.00;0.00;;;;;;;;;;5012671;28;99652;-74
2022/05/08 03:38:06;;;;;;;0.00;0.00;;;;;;;;;;5011899;28;100860;-74
2022/05/08 03:40:33;;;;;;;0.00;0.00;;;;;;;;;;5012635;28;98418;-74
2022/05/08 03:43:00;;;;;;;0.10;0.10;;;;;;;;;;5012011;28;99486;-74
2022/05/08 03:45:28;;;;;;;0.00;0.00;;;;;;;;;;5015642;28;100287;-74
2022/05/08 03:47:55;;;;;;;0.00;0.00;;;;;;;;;;5012572;28;99523;-74
2022/05/08 03:50:22;;;;;;;0.00;0.00;;;;;;;;;;5012128;28;99505;-74
2022/05/08 03:52:49;;;;;;;0.10;0.10;;;;;;;;;;5012563;28;98413;-74
2022/05/08 03:55:15;;;;;;;0.00;0.00;;;;;;;;;;5015699;28;99390;-74
2022/05/08 03:57:42;;;;;;;0.00;0.00;;;;;;;;;;5015173;28;99924;-74
2022/05/08 04:00:09;;;;;;;0.00;0.00;;;;;;;;;;5015835;28;98311;-74
2022/05/08 04:02:38;;;;;;;0.00;0.00;;;;;;;;;;5014399;28;99158;-74
2022/05/08 04:05:05;;;;;;;0.00;0.00;;;;;;;;;;5015026;28;99854;-73
2022/05/08 04:07:31;;;;;;;0.00;0.00;;;;;;;;;;5019219;28;98259;-74
2022/05/08 04:09:58;;;;;;;0.00;0.00;;;;;;;;;;5015304;28;99239;-74
2022/05/08 04:12:26;;;;;;;0.00;0.00;;;;;;;;;;5015189;28;98719;-74
2022/05/08 04:14:52;;;;;;;0.00;0.00;;;;;;;;;;4995116;28;100437;-74
2022/05/08 04:17:19;;;;;;;0.00;0.00;;;;;;;;;;5015556;28;98923;-74
2022/05/08 04:19:49;;;;;;;0.00;0.00;;;;;;;;;;4999323;28;97644;-75
2022/05/08 04:25:03;;;;;;;0.00;0.00;;;;;;;;;;5015124;28;99530;-74
2022/05/08 04:27:29;;;;;;;0.10;0.10;;;;;;;;;;5015030;28;101295;-74
2022/05/08 04:29:56;;;;;;;0.00;0.00;;;;;;;;;;5018325;28;100119;-74
2022/05/08 04:32:23;;;;;;;0.00;0.00;;;;;;;;;;5015083;28;98440;-74
2022/05/08 04:34:49;;;;;;;0.00;0.00;;;;;;;;;;4997553;28;101081;-74
2022/05/08 04:37:15;;;;;;;0.00;0.00;;;;;;;;;;5014433;28;100128;-74
2022/05/08 04:39:41;;;;;;;0.00;0.00;;;;;;;;;;5015373;28;98346;-74
2022/05/08 04:42:08;;;;;;;0.00;0.00;;;;;;;;;;5015314;28;99239;-74
2022/05/08 04:44:34;;;;;;;0.00;0.00;;;;;;;;;;5015568;28;99086;-74
2022/05/08 04:47:01;;;;;;;0.00;0.00;;;;;;;;;;5015209;28;98353;-74
2022/05/08 04:49:29;;;;;;;0.00;0.00;;;;;;;;;;5015196;28;99498;-74
2022/05/08 04:51:55;;;;;;;0.00;0.00;;;;;;;;;;5017322;28;100407;-74
2022/05/08 04:54:24;;;;;;;0.00;0.00;;;;;;;;;;5015175;28;100420;-74
2022/05/08 04:56:51;;;;;;;0.00;0.00;;;;;;;;;;5014433;28;100611;-74
2022/05/08 04:59:18;;;;;;;0.00;0.00;;;;;;;;;;5014791;28;98347;-74
2022/05/08 05:01:44;;;;;;;0.00;0.00;;;;;;;;;;5014795;28;99290;-74
2022/05/08 05:04:11;;;;;;;0.00;0.00;;;;;;;;;;5014249;28;99698;-74
2022/05/08 05:06:38;;;;;;;0.00;0.00;;;;;;;;;;5014016;28;98410;-74
2022/05/08 05:09:04;;;;;;;0.00;0.00;;;;;;;;;;5015401;28;99782;-74
2022/05/08 05:11:31;;;;;;;0.00;0.00;;;;;;;;;;5014289;28;99773;-75
2022/05/08 05:13:59;;;;;;;0.00;0.00;;;;;;;;;;5018049;28;98334;-74
2022/05/08 05:16:25;;;;;;;0.32;0.32;;;;;;;;;;5013829;28;100420;-74
2022/05/08 05:18:52;;;;;;;0.00;0.00;;;;;;;;;;5014631;28;98343;-75
2022/05/08 05:21:18;;;;;;;0.00;0.00;;;;;;;;;;5014338;28;99382;-74
2022/05/08 05:23:44;;;;;;;0.00;0.00;;;;;;;;;;5014135;28;99672;-74
2022/05/08 05:26:11;;;;;;;0.35;0.03;;;;;;;;;;4996748;28;99725;-74
2022/05/08 05:28:37;;;;;;;0.00;0.00;;;;;;;;;;5014328;28;100415;-74
2022/05/08 05:31:04;;;;;;;0.00;0.00;;;;;;;;;;5014246;28;99784;-74
2022/05/08 05:33:30;;;;;;;0.00;0.00;;;;;;;;;;5017854;28;98232;-74
2022/05/08 05:35:57;;;;;;;0.00;0.00;;;;;;;;;;4996464;28;99676;-73
2022/05/08 05:38:23;;;;;;;2.92;0.63;;;;;;;;;;5014377;28;98379;-74
2022/05/08 05:40:50;;;;;;;0.00;0.00;;;;;;;;;;5014000;28;99025;-74
2022/05/08 05:43:17;;;;;;;0.00;0.00;;;;;;;;;;5014053;28;99305;-73
2022/05/08 05:45:43;;;;;;;0.00;0.00;;;;;;;;;;5014280;28;100102;-73
2022/05/08 05:48:10;;;;;;;0.00;0.00;;;;;;;;;;5013803;28;99321;-73
2022/05/08 05:50:37;;;;;;;0.00;0.00;;;;;;;;;;5013681;28;99170;-72
2022/05/08 05:53:03;;;;;;;0.00;0.00;;;;;;;;;;5014052;28;98481;-74
2022/05/08 05:55:30;;;;;;;0.00;0.00;;;;;;;;;;5017067;28;99488;-75
2022/05/08 05:58:03;;;;;;;0.03;0.03;;;;;;;;;;5014532;28;97730;-74
2022/05/08 06:00:29;;;;;;;0.00;0.00;;;;;;;;;;5013846;28;99345;-75
2022/05/08 06:02:56;;;;;;;0.00;0.00;;;;;;;;;;5012966;28;99800;-74
2022/05/08 06:05:22;;;;;;;0.45;0.45;;;;;;;;;;5013452;28;99166;-74
2022/05/08 06:07:48;;;;;;;0.00;0.00;;;;;;;;;;5013637;28;100876;-75
2022/05/08 06:10:16;;;;;;;0.00;0.00;;;;;;;;;;5013593;28;99513;-74
2022/05/08 06:12:43;;;;;;;0.10;0.10;;;;;;;;;;5014026;28;98377;-74
2022/05/08 06:15:10;;;;;;;0.00;0.00;;;;;;;;;;5013480;28;98525;-74
2022/05/08 06:17:37;;;;;;;0.00;0.00;;;;;;;;;;5016701;28;99584;-74
2022/05/08 06:20:04;;;;;;;0.10;0.10;;;;;;;;;;5013674;28;99340;-74
2022/05/08 06:22:34;;;;;;;0.00;0.00;;;;;;;;;;5011585;28;98275;-74
2022/05/08 06:25:01;;;;;;;0.10;0.10;;;;;;;;;;5013511;28;98982;-74
2022/05/08 06:27:27;;;;;;;0.17;0.17;;;;;;;;;;5013851;28;99342;-72
2022/05/08 06:29:54;;;;;;;0.00;0.00;;;;;;;;;;5012679;28;100489;-75
2022/05/08 06:32:21;;;;;;;0.10;0.10;;;;;;;;;;5013485;28;98266;-74
2022/05/08 06:34:47;;;;;;;0.25;0.25;;;;;;;;;;5013571;28;99312;-74
2022/05/08 06:37:14;;;;;;;0.10;0.10;;;;;;;;;;5013338;28;99622;-75
2022/05/08 06:39:40;;;;;;;0.00;0.00;;;;;;;;;;5017325;28;98386;-74
2022/05/08 06:42:07;;;;;;;0.00;0.00;;;;;;;;;;5013163;28;99978;-75
2022/05/08 06:44:43;;;;;;;0.00;0.00;;;;;;;;;;4995306;28;98524;-74
2022/05/08 06:47:10;;;;;;;0.00;0.00;;;;;;;;;;5013747;28;99794;-74
2022/05/08 06:49:36;;;;;;;0.00;0.00;;;;;;;;;;5013027;28;100017;-74
2022/05/08 06:52:03;;;;;;;0.00;0.00;;;;;;;;;;5013490;28;99035;-75
2022/05/08 06:54:29;;;;;;;0.10;0.10;;;;;;;;;;5012791;28;99226;-75
2022/05/08 06:56:56;;;;;;;0.00;0.00;;;;;;;;;;5012647;28;99761;-78
2022/05/08 07:02:07;;;;;;;0.00;0.00;;;;;;;;;;5015853;28;99296;-76
2022/05/08 07:04:34;;;;;;;2.40;1.55;;;;;;;;;;5012970;28;98450;-75
2022/05/08 07:07:00;;;;;;;0.00;0.00;;;;;;;;;;5013325;28;99470;-77
2022/05/08 07:09:28;;;;;;;0.00;0.00;;;;;;;;;;5012442;28;99634;-76
2022/05/08 07:11:54;;;;;;;0.00;0.00;;;;;;;;;;5013470;28;97680;-76
2022/05/08 07:14:27;;;;;;;0.32;0.15;;;;;;;;;;5013169;28;98393;-75
2022/05/08 07:16:53;;;;;;;0.00;0.00;;;;;;;;;;5012271;28;100083;-76
2022/05/08 07:19:19;;;;;;;0.00;0.00;;;;;;;;;;5012241;28;99040;-77
2022/05/08 07:21:46;;;;;;;0.00;0.00;;;;;;;;;;5015539;28;102370;-77
2022/05/08 07:24:18;;;;;;;0.00;0.00;;;;;;;;;;5012773;28;98386;-75
2022/05/08 07:26:45;;;;;;;0.00;0.00;;;;;;;;;;5012213;28;99409;-75
2022/05/08 07:29:12;;;;;;;0.40;0.40;;;;;;;;;;5013208;28;99862;-76
2022/05/08 07:31:38;;;;;;;1.35;1.20;;;;;;;;;;5016349;28;98381;-75
2022/05/08 07:36:50;;;;;;;0.00;0.00;;;;;;;;;;4998434;28;101169;-75
2022/05/08 07:39:16;;;;;;;0.00;0.00;;;;;;;;;;5016285;28;98271;-75
2022/05/08 07:41:42;;;;;;;0.00;0.00;;;;;;;;;;5015529;28;99847;-75
2022/05/08 07:44:10;;;;;;;0.00;0.00;;;;;;;;;;5018553;28;100681;-74
2022/05/08 07:46:36;;;;;;;0.00;0.00;;;;;;;;;;5016010;28;99579;-75
2022/05/08 07:49:03;;;;;;;0.00;0.00;;;;;;;;;;5015586;28;99798;-75
2022/05/08 07:51:29;;;;;;;0.00;0.00;;;;;;;;;;5016079;28;98475;-74
2022/05/08 07:53:57;;;;;;;1.83;0.80;;;;;;;;;;5016120;28;99819;-76
2022/05/08 07:56:24;;;;;;;0.00;0.00;;;;;;;;;;4997323;28;100840;-77
2022/05/08 07:58:50;;;;;;;0.00;0.00;;;;;;;;;;4997997;28;98505;-75
2022/05/08 08:01:17;;;;;;;0.00;0.00;;;;;;;;;;5015641;28;99180;-75
2022/05/08 08:03:43;;;;;;;0.00;0.00;;;;;;;;;;5015052;28;100483;-77
2022/05/08 08:06:10;;;;;;;0.00;0.00;;;;;;;;;;5019396;28;99406;-75
2022/05/08 08:08:38;;;;;;;0.00;0.00;;;;;;;;;;5009855;28;100727;-75
2022/05/08 08:11:05;;;;;;;0.00;0.00;;;;;;;;;;5002983;28;98475;-76
2022/05/08 08:13:32;;;;;;;0.00;0.00;;;;;;;;;;5003507;28;98743;-77
2022/05/08 08:16:00;;;;;;;0.10;0.10;;;;;;;;;;5000327;28;99506;-77
2022/05/08 08:18:27;;;;;;;0.30;0.20;;;;;;;;;;5005535;28;98463;-78
2022/05/08 08:20:54;;;;;;;0.00;0.00;;;;;;;;;;5003463;28;99751;-77
2022/05/08 08:23:21;;;;;;;0.10;0.10;;;;;;;;;;5006306;28;99544;-76
2022/05/08 08:25:47;;;;;;;0.00;0.00;;;;;;;;;;4999458;28;97810;-75
2022/05/08 08:28:14;;;;;;;0.00;0.00;;;;;;;;;;5008656;28;99746;-76
2022/05/08 08:30:40;;;;;;;0.00;0.00;;;;;;;;;;5004114;28;98554;-76
2022/05/08 08:33:06;;;;;;;0.00;0.00;;;;;;;;;;5003074;28;99494;-77
2022/05/08 08:35:36;;;;;;;0.00;0.00;;;;;;;;;;5000401;28;99559;-78
2022/05/08 08:38:07;;;;;;;0.05;0.05;;;;;;;;;;5000452;28;98484;-80
2022/05/08 08:40:38;;;;;;;0.30;0.30;;;;;;;;;;5004707;28;98847;-80
2022/05/08 08:43:09;;;;;;;0.30;0.30;;;;;;;;;;5005166;28;99590;-78
2022/05/08 08:48:38;;;;;;;0.00;0.00;;;;;;;;;;5001658;28;100125;-80
2022/05/08 08:51:05;;;;;;;0.00;0.00;;;;;;;;;;5002967;28;101285;-75
2022/05/08 08:53:31;;;;;;;0.00;0.00;;;;;;;;;;4988211;28;101236;-76
2022/05/08 08:55:59;;;;;;;0.00;0.00;;;;;;;;;;4976337;28;101155;-75
2022/05/08 08:58:26;;;;;;;0.08;0.08;;;;;;;;;;5005463;28;99252;-75
2022/05/08 09:00:53;;;;;;;0.00;0.00;;;;;;;;;;5005761;28;100116;-74
2022/05/08 09:03:19;;;;;;;0.03;0.03;;;;;;;;;;5002960;28;99971;-74
2022/05/08 09:05:46;;;;;;;0.00;0.00;;;;;;;;;;5003791;28;98333;-75
2022/05/08 09:08:28;;;;;;;1.75;0.85;;;;;;;;;;5001522;28;100837;-75
2022/05/08 09:10:56;;;;;;;0.10;0.10;;;;;;;;;;5002740;28;99259;-75
2022/05/08 09:13:23;;;;;;;0.10;0.10;;;;;;;;;;5007961;28;98424;-74
2022/05/08 09:15:50;;;;;;;0.22;0.22;;;;;;;;;;5003710;28;98939;-74
2022/05/08 09:18:16;;;;;;;0.00;0.00;;;;;;;;;;4979712;28;98582;-74
2022/05/08 09:20:51;;;;;;;0.00;0.00;;;;;;;;;;4986430;28;100298;-75
2022/05/08 09:23:23;;;;;;;0.10;0.10;;;;;;;;;;5005651;28;101319;-81
2022/05/08 09:26:10;;;;;;;0.32;0.30;;;;;;;;;;5003926;28;98467;-78
2022/05/08 09:28:43;;;;;;;0.00;0.00;;;;;;;;;;4999087;28;99210;-72
2022/05/08 09:31:09;;;;;;;0.00;0.00;;;;;;;;;;5005400;28;99619;-74
2022/05/08 09:33:37;;;;;;;0.15;0.15;;;;;;;;;;5005805;28;98510;-75
2022/05/08 09:36:04;;;;;;;0.10;0.10;;;;;;;;;;5004401;28;99748;-75
2022/05/08 09:38:40;;;;;;;0.10;0.10;;;;;;;;;;5002871;28;98383;-75
2022/05/08 09:41:34;;;;;;;0.05;0.05;;;;;;;;;;5005351;28;99795;-80
2022/05/08 09:44:10;;;;;;;3.72;1.85;;;;;;;;;;5000938;28;100068;-77
2022/05/08 09:46:37;;;;;;;0.10;0.10;;;;;;;;;;4999924;28;99266;-78
2022/05/08 09:49:07;;;;;;;0.00;0.00;;;;;;;;;;4999647;28;100366;-79
2022/05/08 09:51:35;;;;;;;0.08;0.08;;;;;;;;;;5002359;28;98653;-78
2022/05/08 09:54:01;;;;;;;0.10;0.10;;;;;;;;;;5003712;28;98438;-79
2022/05/08 09:56:28;;;;;;;0.00;0.00;;;;;;;;;;5006853;28;100223;-77
2022/05/08 09:58:54;;;;;;;0.10;0.10;;;;;;;;;;5001238;28;98513;-79
2022/05/08 10:01:23;;;;;;;0.00;0.00;;;;;;;;;;4997381;28;99638;-80
2022/05/08 10:03:51;;;;;;;0.00;0.00;;;;;;;;;;5000145;28;99993;-78
2022/05/08 10:06:19;;;;;;;0.00;0.00;;;;;;;;;;4996913;28;97847;-78
2022/05/08 10:08:47;;;;;;;0.20;0.20;;;;;;;;;;5001370;28;98556;-76
2022/05/08 10:14:04;;;;;;;0.00;0.00;;;;;;;;;;4988584;28;100385;-75
2022/05/08 10:16:50;;;;;;;0.00;0.00;;;;;;;;;;5002106;28;100155;-78
2022/05/08 10:19:19;;;;;;;0.00;0.00;;;;;;;;;;5004863;28;99857;-80
2022/05/08 10:22:09;;;;;;;0.00;0.00;;;;;;;;;;4987560;28;98925;-79
2022/05/08 10:24:42;;;;;;;0.32;0.20;;;;;;;;;;5001863;28;101688;-81
2022/05/08 10:27:11;;;;;;;0.10;0.10;;;;;;;;;;4988118;28;98656;-81
2022/05/08 10:29:38;;;;;;;0.10;0.10;;;;;;;;;;4980951;28;102799;-79
2022/05/08 10:32:10;;;;;;;0.10;0.10;;;;;;;;;;5000958;28;98264;-78
2022/05/08 10:34:37;;;;;;;;;;;;;;;;;;5004396;28;98556;-82
2022/05/08 10:37:13;;;;;;;0.10;0.10;;;;;;;;;;5000290;28;126233;-79
2022/05/08 10:43:30;;;;;;;0.00;0.00;;;;;;;;;;4943598;28;98656;-80
2022/05/08 10:46:18;;;;;;;0.10;0.10;;;;;;;;;;4986565;28;99191;-76
2022/05/08 10:48:44;;;;;;;0.00;0.00;;;;;;;;;;4999494;28;98384;-78
2022/05/08 10:51:14;;;;;;;0.10;0.10;;;;;;;;;;5003361;28;99110;-79
2022/05/08 10:53:52;;;;;;;0.05;0.05;;;;;;;;;;5002286;28;99665;-76
2022/05/08 10:56:19;;;;;;;0.10;0.10;;;;;;;;;;5004540;28;98496;-80
2022/05/08 10:58:53;;;;;;;0.10;0.10;;;;;;;;;;5004342;28;100008;-80
2022/05/08 11:01:19;;;;;;;0.00;0.00;;;;;;;;;;4981410;28;101620;-80
2022/05/08 11:03:45;;;;;;;0.08;0.08;;;;;;;;;;4999080;28;98557;-78
2022/05/08 11:06:18;;;;;;;0.00;0.00;;;;;;;;;;5005892;28;99397;-75
2022/05/08 11:08:44;;;;;;;0.32;0.32;;;;;;;;;;5002326;28;98336;-77
2022/05/08 11:11:12;;;;;;;0.95;0.95;;;;;;;;;;5000838;28;99799;-77
2022/05/08 11:13:49;;;;;;;0.40;0.40;;;;;;;;;;5000416;28;100037;-79
2022/05/08 11:16:41;;;;;;;2.55;0.20;;;;;;;;;;4983142;28;98577;-77
2022/05/08 11:19:07;;;;;;;0.00;0.00;;;;;;;;;;5003556;28;98918;-77
2022/05/08 11:21:34;;;;;;;0.10;0.10;;;;;;;;;;5000598;28;100779;-78
2022/05/08 11:24:02;;;;;;;0.10;0.10;;;;;;;;;;5001155;28;97572;-77
2022/05/08 11:26:32;;;;;;;0.10;0.10;;;;;;;;;;4992710;28;98711;-78
2022/05/08 11:29:00;;;;;;;0.10;0.10;;;;;;;;;;4995691;28;99937;-78
2022/05/08 11:31:30;;;;;;;0.00;0.00;;;;;;;;;;4991689;28;99380;-77
2022/05/08 11:36:44;;;;;;;0.00;0.00;;;;;;;;;;4992700;28;98551;-77
2022/05/08 11:39:17;;;;;;;0.10;0.10;;;;;;;;;;4992465;28;98404;-77
2022/05/08 11:41:44;;;;;;;0.00;0.00;;;;;;;;;;4991564;28;100197;-76
2022/05/08 11:44:13;;;;;;;0.10;0.10;;;;;;;;;;4992586;28;98446;-77
2022/05/08 11:46:44;;;;;;;0.85;0.40;;;;;;;;;;4992833;28;98681;-76
2022/05/08 11:49:27;;;;;;;0.00;0.00;;;;;;;;;;4995610;28;99377;-74
2022/05/08 11:51:54;;;;;;;0.00;0.00;;;;;;;;;;4992549;28;98218;-75
2022/05/08 11:54:30;;;;;;;0.03;0.03;;;;;;;;;;4991657;28;100196;-74
2022/05/08 11:57:08;;;;;;;0.20;0.20;;;;;;;;;;4991950;28;99048;-75
2022/05/08 11:59:35;;;;;;;0.00;0.00;;;;;;;;;;4992455;28;100103;-75
2022/05/08 12:02:01;;;;;;;0.10;0.10;;;;;;;;;;4991478;28;99670;-74
2022/05/08 12:04:36;;;;;;;0.10;0.10;;;;;;;;;;4992341;28;98389;-76
2022/05/08 12:07:12;;;;;;;0.10;0.10;;;;;;;;;;4990948;28;100426;-75
2022/05/08 12:09:45;;;;;;;0.10;0.10;;;;;;;;;;4991862;28;99892;-74
2022/05/08 12:12:20;;;;;;;0.10;0.10;;;;;;;;;;4995349;28;98429;-74
2022/05/08 12:15:12;;;;;;;0.00;0.00;;;;;;;;;;4993123;28;98737;-74
2022/05/08 12:17:39;;;;;;;0.00;0.00;;;;;;;;;;4988367;28;98401;-75
2022/05/08 12:20:16;;;;;;;0.00;0.00;;;;;;;;;;4995388;28;99254;-73
2022/05/08 12:22:46;;;;;;;0.00;0.00;;;;;;;;;;4994552;28;100504;-76
2022/05/08 12:25:14;;;;;;;0.70;0.50;;;;;;;;;;4995141;28;98433;-75
2022/05/08 12:27:40;;;;;;;0.00;0.00;;;;;;;;;;4995229;28;99404;-75
2022/05/08 12:30:09;;;;;;;0.08;0.08;;;;;;;;;;4995096;28;99037;-76
2022/05/08 12:32:39;;;;;;;0.10;0.10;;;;;;;;;;4995350;28;98335;-75
2022/05/08 12:35:06;;;;;;;0.00;0.00;;;;;;;;;;4998200;28;98682;-76
2022/05/08 12:37:32;;;;;;;0.10;0.10;;;;;;;;;;4992336;28;98473;-74
2022/05/08 12:40:00;;;;;;;0.00;0.00;;;;;;;;;;4995826;28;99449;-76
2022/05/08 12:42:26;;;;;;;0.43;0.43;;;;;;;;;;4993474;28;100843;-76
2022/05/08 12:44:53;;;;;;;0.00;0.00;;;;;;;;;;4996955;28;98521;-76
2022/05/08 12:47:20;;;;;;;0.08;0.08;;;;;;;;;;4996646;28;99103;-74
2022/05/08 12:49:48;;;;;;;0.10;0.10;;;;;;;;;;4994732;28;99856;-75
2022/05/08 12:52:14;;;;;;;0.00;0.00;;;;;;;;;;4995064;28;98465;-76
2022/05/08 12:54:41;;;;;;;0.00;0.00;;;;;;;;;;4994647;28;100150;-76
2022/05/08 12:57:08;;;;;;;0.08;0.08;;;;;;;;;;4998563;28;99706;-74
2022/05/08 12:59:47;;;;;;;0.00;0.00;;;;;;;;;;4995063;28;99376;-75
2022/05/08 13:02:15;;;;;;;0.00;0.00;;;;;;;;;;4974822;28;99595;-75
2022/05/08 13:04:43;;;;;;;0.10;0.10;;;;;;;;;;4983536;28;98758;-75
2022/05/08 13:07:10;;;;;;;0.00;0.00;;;;;;;;;;4983344;28;100124;-75
2022/05/08 13:09:36;;;;;;;0.00;0.00;;;;;;;;;;4983773;28;99499;-74
2022/05/08 13:12:04;;;;;;;0.00;0.00;;;;;;;;;;4984025;28;99220;-74
2022/05/08 13:14:30;;;;;;;0.17;0.17;;;;;;;;;;4983162;28;100501;-75
2022/05/08 13:16:59;;;;;;;0.00;0.00;;;;;;;;;;4982100;28;100546;-75
2022/05/08 13:19:27;;;;;;;0.17;0.17;;;;;;;;;;4985922;28;99757;-75
2022/05/08 13:21:54;;;;;;;0.00;0.00;;;;;;;;;;4992763;28;100674;-75
2022/05/08 13:24:20;;;;;;;0.05;0.05;;;;;;;;;;4982595;28;99034;-74
2022/05/08 13:26:46;;;;;;;0.15;0.15;;;;;;;;;;4982610;28;99591;-74
2022/05/08 13:29:13;;;;;;;0.38;0.30;;;;;;;;;;4984191;28;97906;-75
2022/05/08 13:31:41;;;;;;;0.10;0.10;;;;;;;;;;4980581;28;98423;-76
2022/05/08 13:34:09;;;;;;;0.10;0.10;;;;;;;;;;4982947;28;101031;-77
2022/05/08 13:36:36;;;;;;;0.00;0.00;;;;;;;;;;4982471;28;100359;-76
2022/05/08 13:39:04;;;;;;;0.00;0.00;;;;;;;;;;4982384;28;98349;-75
2022/05/08 13:41:32;;;;;;;0.10;0.10;;;;;;;;;;4988089;28;101028;-75
2022/05/08 13:43:59;;;;;;;0.10;0.10;;;;;;;;;;4977120;28;98384;-75
2022/05/08 13:46:25;;;;;;;0.00;0.00;;;;;;;;;;4978580;28;99469;-74
2022/05/08 13:48:52;;;;;;;0.20;0.20;;;;;;;;;;4982079;28;99583;-74
2022/05/08 13:51:18;;;;;;;0.00;0.00;;;;;;;;;;4983285;28;98411;-72
2022/05/08 13:53:45;;;;;;;0.00;0.00;;;;;;;;;;4994481;28;99617;-76
2022/05/08 13:56:12;;;;;;;0.00;0.00;;;;;;;;;;4993685;28;99501;-81
2022/05/08 13:58:38;;;;;;;0.00;0.00;;;;;;;;;;4994256;28;98343;-75
2022/05/08 14:01:05;;;;;;;0.00;0.00;;;;;;;;;;4998028;28;99215;-74
2022/05/08 14:03:32;;;;;;;0.00;0.00;;;;;;;;;;5013625;28;98470;-77
2022/05/08 14:06:00;;;;;;;0.00;0.00;;;;;;;;;;5011016;28;99403;-76
2022/05/08 14:08:28;;;;;;;0.00;0.00;;;;;;;;;;4995781;28;100762;-79
2022/05/08 14:10:55;;;;;;;0.00;0.00;;;;;;;;;;5013720;28;98349;-75
2022/05/08 14:13:21;;;;;;;0.00;0.00;;;;;;;;;;5013383;28;100493;-76
2022/05/08 14:15:48;;;;;;;0.10;0.10;;;;;;;;;;5013493;28;99155;-75
2022/05/08 14:18:16;;;;;;;0.00;0.00;;;;;;;;;;5010792;28;97828;-76
2022/05/08 14:20:42;;;;;;;0.00;0.00;;;;;;;;;;5013775;28;98435;-76
2022/05/08 14:23:09;;;;;;;0.00;0.00;;;;;;;;;;5016405;28;99659;-75
2022/05/08 14:25:36;;;;;;;0.00;0.00;;;;;;;;;;5013144;28;99674;-77
2022/05/08 14:28:02;;;;;;;0.00;0.00;;;;;;;;;;5013023;28;99184;-75
2022/05/08 14:30:29;;;;;;;0.40;0.25;;;;;;;;;;5013471;28;98365;-75
2022/05/08 14:38:25;;;;;;;0.00;0.00;;;;;;;;;;5011992;28;98503;-76
2022/05/08 14:40:55;;;;;;;0.00;0.00;;;;;;;;;;5013241;28;98995;-73
2022/05/08 14:43:21;;;;;;;0.00;0.00;;;;;;;;;;5012524;28;100154;-73
2022/05/08 14:45:48;;;;;;;0.00;0.00;;;;;;;;;;5016420;28;100243;-72
2022/05/08 14:48:16;;;;;;;0.00;0.00;;;;;;;;;;5012754;28;98731;-73
2022/05/08 14:50:42;;;;;;;0.13;0.13;;;;;;;;;;5012590;28;99155;-73
2022/05/08 14:53:13;;;;;;;0.30;0.30;;;;;;;;;;5013835;28;100078;-74
2022/05/08 14:55:41;;;;;;;0.20;0.20;;;;;;;;;;4994951;28;100393;-74
2022/05/08 14:58:07;;;;;;;0.00;0.00;;;;;;;;;;5013081;28;98293;-73
2022/05/08 15:00:34;;;;;;;0.17;0.17;;;;;;;;;;5000871;28;100674;-73
2022/05/08 15:03:01;;;;;;;0.20;0.20;;;;;;;;;;4992178;28;99609;-73
2022/05/08 15:05:31;;;;;;;0.00;0.00;;;;;;;;;;4993394;28;98208;-74
2022/05/08 15:07:57;;;;;;;0.10;0.10;;;;;;;;;;4996355;28;98607;-70
2022/05/08 15:10:24;;;;;;;0.00;0.00;;;;;;;;;;4992654;28;98602;-74
2022/05/08 15:12:52;;;;;;;0.00;0.00;;;;;;;;;;4993081;28;99672;-73
2022/05/08 15:15:18;;;;;;;0.00;0.00;;;;;;;;;;4992103;28;100029;-74
2022/05/08 15:20:33;;;;;;;0.00;0.00;;;;;;;;;;4992840;28;99106;-73